sensor_id;sensor_type;location;lat;lon;timestamp;temperature;humidity
75088;HTU21D;63664;44.868;40.600;2023-07-13T00:00:47;17.93;97.60
75088;HTU21D;63664;44.868;40.600;2023-07-13T00:03:15;17.91;97.70
75088;HTU21D;63664;44.868;40.600;2023-07-13T00:05:43;17.85;97.69
75088;HTU21D;63664;44.868;40.600;2023-07-13T00:08:11;17.82;97.79
75088;HTU21D;63664;44.868;40.600;2023-07-13T00:10:41;17.79;97.75
75088;HTU21D;63664;44.868;40.600;2023-07-13T00:13:10;17.77;97.73
75088;HTU21D;63664;44.868;40.600;2023-07-13T00:15:37;17.68;97.80
75088;HTU21D;63664;44.868;40.600;2023-07-13T00:18:03;17.65;97.88
75088;HTU21D;63664;44.868;40.600;2023-07-13T00:20:29;17.64;97.90
75088;HTU21D;63664;44.868;40.600;2023-07-13T00:22:58;17.62;97.89
75088;HTU21D;63664;44.868;40.600;2023-07-13T00:25:24;17.60;97.86
75088;HTU21D;63664;44.868;40.600;2023-07-13T00:27:55;17.56;97.79
75088;HTU21D;63664;44.868;40.600;2023-07-13T00:30:22;17.55;97.77
75088;HTU21D;63664;44.868;40.600;2023-07-13T00:32:48;17.50;97.83
75088;HTU21D;63664;44.868;40.600;2023-07-13T00:35:14;17.49;97.87
75088;HTU21D;63664;44.868;40.600;2023-07-13T00:37:42;17.47;97.86
75088;HTU21D;63664;44.868;40.600;2023-07-13T00:40:11;17.46;97.91
75088;HTU21D;63664;44.868;40.600;2023-07-13T00:42:39;17.41;97.94
75088;HTU21D;63664;44.868;40.600;2023-07-13T00:47:42;17.40;98.04
75088;HTU21D;63664;44.868;40.600;2023-07-13T00:50:12;17.39;98.11
75088;HTU21D;63664;44.868;40.600;2023-07-13T00:52:45;17.38;98.19
75088;HTU21D;63664;44.868;40.600;2023-07-13T00:55:13;17.37;98.29
75088;HTU21D;63664;44.868;40.600;2023-07-13T00:57:41;17.34;98.42
75088;HTU21D;63664;44.868;40.600;2023-07-13T01:00:08;17.35;98.50
75088;HTU21D;63664;44.868;40.600;2023-07-13T01:02:44;17.35;98.58
75088;HTU21D;63664;44.868;40.600;2023-07-13T01:05:18;17.35;98.60
75088;HTU21D;63664;44.868;40.600;2023-07-13T01:07:45;17.36;98.59
75088;HTU21D;63664;44.868;40.600;2023-07-13T01:10:35;17.36;98.58
75088;HTU21D;63664;44.868;40.600;2023-07-13T01:13:10;17.34;98.58
75088;HTU21D;63664;44.868;40.600;2023-07-13T01:15:42;17.33;98.67
75088;HTU21D;63664;44.868;40.600;2023-07-13T01:18:16;17.32;98.71
75088;HTU21D;63664;44.868;40.600;2023-07-13T01:21:02;17.31;98.78
75088;HTU21D;63664;44.868;40.600;2023-07-13T01:23:30;17.31;98.81
75088;HTU21D;63664;44.868;40.600;2023-07-13T01:25:57;17.31;98.81
75088;HTU21D;63664;44.868;40.600;2023-07-13T01:28:26;17.28;98.90
75088;HTU21D;63664;44.868;40.600;2023-07-13T01:30:57;17.26;98.98
75088;HTU21D;63664;44.868;40.600;2023-07-13T01:33:24;17.26;98.93
75088;HTU21D;63664;44.868;40.600;2023-07-13T01:35:51;17.28;98.93
75088;HTU21D;63664;44.868;40.600;2023-07-13T01:38:20;17.25;98.95
75088;HTU21D;63664;44.868;40.600;2023-07-13T01:40:47;17.23;98.97
75088;HTU21D;63664;44.868;40.600;2023-07-13T01:43:14;17.19;99.14
75088;HTU21D;63664;44.868;40.600;2023-07-13T01:45:40;17.17;99.12
75088;HTU21D;63664;44.868;40.600;2023-07-13T01:48:06;17.14;99.16
75088;HTU21D;63664;44.868;40.600;2023-07-13T01:50:33;17.10;99.26
75088;HTU21D;63664;44.868;40.600;2023-07-13T01:53:00;17.10;99.29
75088;HTU21D;63664;44.868;40.600;2023-07-13T01:55:27;17.10;99.29
75088;HTU21D;63664;44.868;40.600;2023-07-13T01:57:53;17.05;99.38
75088;HTU21D;63664;44.868;40.600;2023-07-13T02:00:20;17.04;99.42
75088;HTU21D;63664;44.868;40.600;2023-07-13T02:02:47;17.04;99.45
75088;HTU21D;63664;44.868;40.600;2023-07-13T02:05:17;17.02;99.45
75088;HTU21D;63664;44.868;40.600;2023-07-13T02:07:43;17.00;99.45
75088;HTU21D;63664;44.868;40.600;2023-07-13T02:10:10;16.99;99.48
75088;HTU21D;63664;44.868;40.600;2023-07-13T02:12:38;16.96;99.42
75088;HTU21D;63664;44.868;40.600;2023-07-13T02:15:08;16.94;99.45
75088;HTU21D;63664;44.868;40.600;2023-07-13T02:17:35;16.93;99.48
75088;HTU21D;63664;44.868;40.600;2023-07-13T02:20:03;16.90;99.51
75088;HTU21D;63664;44.868;40.600;2023-07-13T02:22:30;16.88;99.53
75088;HTU21D;63664;44.868;40.600;2023-07-13T02:24:57;16.87;99.48
75088;HTU21D;63664;44.868;40.600;2023-07-13T02:27:23;16.84;99.51
75088;HTU21D;63664;44.868;40.600;2023-07-13T02:29:49;16.81;99.55
75088;HTU21D;63664;44.868;40.600;2023-07-13T02:32:20;16.78;99.64
75088;HTU21D;63664;44.868;40.600;2023-07-13T02:34:51;16.79;99.59
75088;HTU21D;63664;44.868;40.600;2023-07-13T02:37:18;16.79;99.58
75088;HTU21D;63664;44.868;40.600;2023-07-13T02:39:47;16.81;99.53
75088;HTU21D;63664;44.868;40.600;2023-07-13T02:42:13;16.81;99.53
75088;HTU21D;63664;44.868;40.600;2023-07-13T02:44:40;16.82;99.51
75088;HTU21D;63664;44.868;40.600;2023-07-13T02:47:06;16.85;99.51
75088;HTU21D;63664;44.868;40.600;2023-07-13T02:49:32;16.88;99.48
75088;HTU21D;63664;44.868;40.600;2023-07-13T02:51:59;16.90;99.42
75088;HTU21D;63664;44.868;40.600;2023-07-13T02:54:25;16.93;99.38
75088;HTU21D;63664;44.868;40.600;2023-07-13T02:56:51;16.95;99.35
75088;HTU21D;63664;44.868;40.600;2023-07-13T02:59:18;16.99;99.34
75088;HTU21D;63664;44.868;40.600;2023-07-13T03:01:46;17.02;99.32
75088;HTU21D;63664;44.868;40.600;2023-07-13T03:04:13;17.06;99.31
75088;HTU21D;63664;44.868;40.600;2023-07-13T03:06:43;17.10;99.27
75088;HTU21D;63664;44.868;40.600;2023-07-13T03:09:09;17.16;99.25
75088;HTU21D;63664;44.868;40.600;2023-07-13T03:11:40;17.21;99.23
75088;HTU21D;63664;44.868;40.600;2023-07-13T03:14:18;17.26;99.16
75088;HTU21D;63664;44.868;40.600;2023-07-13T03:16:44;17.31;99.19
75088;HTU21D;63664;44.868;40.600;2023-07-13T03:19:11;17.37;99.19
75088;HTU21D;63664;44.868;40.600;2023-07-13T03:21:38;17.43;99.29
75088;HTU21D;63664;44.868;40.600;2023-07-13T03:24:08;17.50;99.30
75088;HTU21D;63664;44.868;40.600;2023-07-13T03:26:34;17.55;99.23
75088;HTU21D;63664;44.868;40.600;2023-07-13T03:29:03;17.64;99.15
75088;HTU21D;63664;44.868;40.600;2023-07-13T03:31:33;17.73;99.16
75088;HTU21D;63664;44.868;40.600;2023-07-13T03:33:59;17.81;99.02
75088;HTU21D;63664;44.868;40.600;2023-07-13T03:36:30;17.88;98.93
75088;HTU21D;63664;44.868;40.600;2023-07-13T03:39:02;17.95;98.85
75088;HTU21D;63664;44.868;40.600;2023-07-13T03:41:39;17.98;98.71
75088;HTU21D;63664;44.868;40.600;2023-07-13T03:44:06;18.00;98.68
75088;HTU21D;63664;44.868;40.600;2023-07-13T03:46:32;18.04;98.75
75088;HTU21D;63664;44.868;40.600;2023-07-13T03:48:59;18.05;98.75
75088;HTU21D;63664;44.868;40.600;2023-07-13T03:51:25;18.07;98.77
75088;HTU21D;63664;44.868;40.600;2023-07-13T03:53:54;18.10;98.73
75088;HTU21D;63664;44.868;40.600;2023-07-13T03:56:22;18.13;98.76
75088;HTU21D;63664;44.868;40.600;2023-07-13T03:58:50;18.18;98.68
75088;HTU21D;63664;44.868;40.600;2023-07-13T04:01:21;18.24;98.52
75088;HTU21D;63664;44.868;40.600;2023-07-13T04:03:47;18.29;98.29
75088;HTU21D;63664;44.868;40.600;2023-07-13T04:06:20;18.38;97.99
75088;HTU21D;63664;44.868;40.600;2023-07-13T04:08:50;18.46;97.78
75088;HTU21D;63664;44.868;40.600;2023-07-13T04:11:18;18.52;97.57
75088;HTU21D;63664;44.868;40.600;2023-07-13T04:13:46;18.59;97.38
75088;HTU21D;63664;44.868;40.600;2023-07-13T04:16:16;18.64;97.22
75088;HTU21D;63664;44.868;40.600;2023-07-13T04:18:43;18.68;97.07
75088;HTU21D;63664;44.868;40.600;2023-07-13T04:21:10;18.73;96.97
75088;HTU21D;63664;44.868;40.600;2023-07-13T04:23:37;18.78;96.83
75088;HTU21D;63664;44.868;40.600;2023-07-13T04:26:04;18.84;96.57
75088;HTU21D;63664;44.868;40.600;2023-07-13T04:28:32;18.91;96.37
75088;HTU21D;63664;44.868;40.600;2023-07-13T04:30:58;18.97;96.23
75088;HTU21D;63664;44.868;40.600;2023-07-13T04:33:26;19.03;96.09
75088;HTU21D;63664;44.868;40.600;2023-07-13T04:35:54;19.11;95.87
75088;HTU21D;63664;44.868;40.600;2023-07-13T04:38:23;19.21;95.43
75088;HTU21D;63664;44.868;40.600;2023-07-13T04:40:51;19.28;95.14
75088;HTU21D;63664;44.868;40.600;2023-07-13T04:43:18;19.33;94.97
75088;HTU21D;63664;44.868;40.600;2023-07-13T04:45:45;19.40;94.70
75088;HTU21D;63664;44.868;40.600;2023-07-13T04:48:12;19.50;94.33
75088;HTU21D;63664;44.868;40.600;2023-07-13T04:50:38;19.55;94.09
75088;HTU21D;63664;44.868;40.600;2023-07-13T04:53:07;19.59;93.80
75088;HTU21D;63664;44.868;40.600;2023-07-13T04:55:33;19.66;93.57
75088;HTU21D;63664;44.868;40.600;2023-07-13T04:58:00;19.71;93.21
75088;HTU21D;63664;44.868;40.600;2023-07-13T05:00:27;19.79;92.72
75088;HTU21D;63664;44.868;40.600;2023-07-13T05:02:57;19.88;92.34
75088;HTU21D;63664;44.868;40.600;2023-07-13T05:05:25;19.97;91.98
75088;HTU21D;63664;44.868;40.600;2023-07-13T05:07:52;20.05;91.63
75088;HTU21D;63664;44.868;40.600;2023-07-13T05:10:21;20.16;91.24
75088;HTU21D;63664;44.868;40.600;2023-07-13T05:12:50;20.22;90.95
75088;HTU21D;63664;44.868;40.600;2023-07-13T05:15:17;20.31;90.58
75088;HTU21D;63664;44.868;40.600;2023-07-13T05:17:50;20.48;89.98
75088;HTU21D;63664;44.868;40.600;2023-07-13T05:20:17;20.62;89.45
75088;HTU21D;63664;44.868;40.600;2023-07-13T05:22:44;20.74;88.83
75088;HTU21D;63664;44.868;40.600;2023-07-13T05:25:13;20.85;88.57
75088;HTU21D;63664;44.868;40.600;2023-07-13T05:27:40;20.98;88.15
75088;HTU21D;63664;44.868;40.600;2023-07-13T05:30:07;21.09;87.56
75088;HTU21D;63664;44.868;40.600;2023-07-13T05:32:37;21.23;87.26
75088;HTU21D;63664;44.868;40.600;2023-07-13T05:35:05;21.38;86.95
75088;HTU21D;63664;44.868;40.600;2023-07-13T05:37:35;21.57;86.13
75088;HTU21D;63664;44.868;40.600;2023-07-13T05:40:01;21.73;85.42
75088;HTU21D;63664;44.868;40.600;2023-07-13T05:42:30;21.91;84.58
75088;HTU21D;63664;44.868;40.600;2023-07-13T05:45:00;22.07;83.89
75088;HTU21D;63664;44.868;40.600;2023-07-13T05:47:30;22.25;83.11
75088;HTU21D;63664;44.868;40.600;2023-07-13T05:49:59;22.42;82.42
75088;HTU21D;63664;44.868;40.600;2023-07-13T05:52:25;22.57;81.79
75088;HTU21D;63664;44.868;40.600;2023-07-13T05:54:51;22.73;80.96
75088;HTU21D;63664;44.868;40.600;2023-07-13T05:57:18;22.84;80.22
75088;HTU21D;63664;44.868;40.600;2023-07-13T05:59:46;22.99;79.88
75088;HTU21D;63664;44.868;40.600;2023-07-13T06:02:13;23.20;79.02
75088;HTU21D;63664;44.868;40.600;2023-07-13T06:04:40;23.38;78.41
75088;HTU21D;63664;44.868;40.600;2023-07-13T06:07:06;23.54;77.55
75088;HTU21D;63664;44.868;40.600;2023-07-13T06:09:32;23.68;77.37
75088;HTU21D;63664;44.868;40.600;2023-07-13T06:12:01;23.85;76.87
75088;HTU21D;63664;44.868;40.600;2023-07-13T06:14:27;24.03;76.01
75088;HTU21D;63664;44.868;40.600;2023-07-13T06:16:53;24.21;75.59
75088;HTU21D;63664;44.868;40.600;2023-07-13T06:19:20;24.40;74.96
75088;HTU21D;63664;44.868;40.600;2023-07-13T06:21:46;24.58;74.83
75088;HTU21D;63664;44.868;40.600;2023-07-13T06:24:12;24.77;74.05
75088;HTU21D;63664;44.868;40.600;2023-07-13T06:26:41;24.88;73.64
75088;HTU21D;63664;44.868;40.600;2023-07-13T06:29:07;25.02;72.99
75088;HTU21D;63664;44.868;40.600;2023-07-13T06:31:33;25.19;72.73
75088;HTU21D;63664;44.868;40.600;2023-07-13T06:34:02;25.36;72.12
75088;HTU21D;63664;44.868;40.600;2023-07-13T06:36:29;25.52;71.92
75088;HTU21D;63664;44.868;40.600;2023-07-13T06:38:55;25.67;71.52
75088;HTU21D;63664;44.868;40.600;2023-07-13T06:41:21;25.78;70.92
75088;HTU21D;63664;44.868;40.600;2023-07-13T06:43:48;25.80;70.73
75088;HTU21D;63664;44.868;40.600;2023-07-13T06:46:15;25.91;70.05
75088;HTU21D;63664;44.868;40.600;2023-07-13T06:48:42;26.03;69.59
75088;HTU21D;63664;44.868;40.600;2023-07-13T06:51:09;26.22;69.58
75088;HTU21D;63664;44.868;40.600;2023-07-13T06:53:37;26.45;68.84
75088;HTU21D;63664;44.868;40.600;2023-07-13T06:56:04;26.63;67.67
75088;HTU21D;63664;44.868;40.600;2023-07-13T06:58:33;26.63;67.75
75088;HTU21D;63664;44.868;40.600;2023-07-13T07:00:59;26.71;67.55
75088;HTU21D;63664;44.868;40.600;2023-07-13T07:03:25;26.89;66.96
75088;HTU21D;63664;44.868;40.600;2023-07-13T07:05:52;27.02;66.17
75088;HTU21D;63664;44.868;40.600;2023-07-13T07:08:18;27.20;65.21
75088;HTU21D;63664;44.868;40.600;2023-07-13T07:10:47;27.27;64.53
75088;HTU21D;63664;44.868;40.600;2023-07-13T07:13:23;27.42;64.29
75088;HTU21D;63664;44.868;40.600;2023-07-13T07:15:52;27.50;63.47
75088;HTU21D;63664;44.868;40.600;2023-07-13T07:18:21;27.60;63.11
75088;HTU21D;63664;44.868;40.600;2023-07-13T07:20:49;27.73;61.84
75088;HTU21D;63664;44.868;40.600;2023-07-13T07:23:15;27.87;61.21
75088;HTU21D;63664;44.868;40.600;2023-07-13T07:25:43;28.08;60.66
75088;HTU21D;63664;44.868;40.600;2023-07-13T07:28:10;28.16;59.32
75088;HTU21D;63664;44.868;40.600;2023-07-13T07:30:36;28.12;59.07
75088;HTU21D;63664;44.868;40.600;2023-07-13T07:33:04;28.01;59.12
75088;HTU21D;63664;44.868;40.600;2023-07-13T07:35:33;28.04;58.64
75088;HTU21D;63664;44.868;40.600;2023-07-13T07:37:59;28.16;57.64
75088;HTU21D;63664;44.868;40.600;2023-07-13T07:40:25;28.21;56.97
75088;HTU21D;63664;44.868;40.600;2023-07-13T07:42:52;28.24;56.73
75088;HTU21D;63664;44.868;40.600;2023-07-13T07:45:21;28.30;55.97
75088;HTU21D;63664;44.868;40.600;2023-07-13T07:47:47;28.48;55.79
75088;HTU21D;63664;44.868;40.600;2023-07-13T07:50:14;28.74;55.44
75088;HTU21D;63664;44.868;40.600;2023-07-13T07:52:40;28.99;54.81
75088;HTU21D;63664;44.868;40.600;2023-07-13T07:55:10;29.28;54.23
75088;HTU21D;63664;44.868;40.600;2023-07-13T07:57:39;29.46;53.17
75088;HTU21D;63664;44.868;40.600;2023-07-13T08:00:06;29.64;52.86
75088;HTU21D;63664;44.868;40.600;2023-07-13T08:02:40;29.88;52.72
75088;HTU21D;63664;44.868;40.600;2023-07-13T08:05:09;30.01;52.51
75088;HTU21D;63664;44.868;40.600;2023-07-13T08:07:37;30.11;51.45
75088;HTU21D;63664;44.868;40.600;2023-07-13T08:10:05;30.32;51.08
75088;HTU21D;63664;44.868;40.600;2023-07-13T08:12:36;30.36;50.81
75088;HTU21D;63664;44.868;40.600;2023-07-13T08:15:04;30.36;50.12
75088;HTU21D;63664;44.868;40.600;2023-07-13T08:17:31;30.32;49.38
75088;HTU21D;63664;44.868;40.600;2023-07-13T08:19:59;30.47;49.11
75088;HTU21D;63664;44.868;40.600;2023-07-13T08:22:25;30.56;47.96
75088;HTU21D;63664;44.868;40.600;2023-07-13T08:24:51;30.46;47.71
75088;HTU21D;63664;44.868;40.600;2023-07-13T08:27:23;30.62;48.01
75088;HTU21D;63664;44.868;40.600;2023-07-13T08:29:50;30.85;47.64
75088;HTU21D;63664;44.868;40.600;2023-07-13T08:32:18;30.86;46.30
75088;HTU21D;63664;44.868;40.600;2023-07-13T08:34:47;30.87;46.15
75088;HTU21D;63664;44.868;40.600;2023-07-13T08:37:14;30.94;46.61
75088;HTU21D;63664;44.868;40.600;2023-07-13T08:39:41;31.18;46.22
75088;HTU21D;63664;44.868;40.600;2023-07-13T08:45:07;31.51;46.78
75088;HTU21D;63664;44.868;40.600;2023-07-13T08:47:46;31.76;45.30
75088;HTU21D;63664;44.868;40.600;2023-07-13T08:50:16;31.67;44.56
75088;HTU21D;63664;44.868;40.600;2023-07-13T08:52:46;31.65;44.68
75088;HTU21D;63664;44.868;40.600;2023-07-13T08:55:20;31.72;43.84
75088;HTU21D;63664;44.868;40.600;2023-07-13T09:01:13;31.79;43.91
75088;HTU21D;63664;44.868;40.600;2023-07-13T09:04:05;31.92;44.11
75088;HTU21D;63664;44.868;40.600;2023-07-13T09:06:48;32.03;43.51
75088;HTU21D;63664;44.868;40.600;2023-07-13T09:11:56;32.31;42.45
75088;HTU21D;63664;44.868;40.600;2023-07-13T09:14:50;32.46;42.43
75088;HTU21D;63664;44.868;40.600;2023-07-13T09:17:22;32.32;41.68
75088;HTU21D;63664;44.868;40.600;2023-07-13T09:20:01;32.37;41.55
75088;HTU21D;63664;44.868;40.600;2023-07-13T09:22:37;32.37;41.55
75088;HTU21D;63664;44.868;40.600;2023-07-13T09:25:05;32.54;41.62
75088;HTU21D;63664;44.868;40.600;2023-07-13T09:27:44;32.59;41.01
75088;HTU21D;63664;44.868;40.600;2023-07-13T09:32:43;32.77;40.20
75088;HTU21D;63664;44.868;40.600;2023-07-13T09:35:12;32.79;39.89
75088;HTU21D;63664;44.868;40.600;2023-07-13T09:37:45;32.85;39.75
75088;HTU21D;63664;44.868;40.600;2023-07-13T09:40:38;32.63;39.05
75088;HTU21D;63664;44.868;40.600;2023-07-13T09:43:12;32.41;39.72
75088;HTU21D;63664;44.868;40.600;2023-07-13T09:45:40;32.34;39.57
75088;HTU21D;63664;44.868;40.600;2023-07-13T09:48:12;32.34;39.04
75088;HTU21D;63664;44.868;40.600;2023-07-13T09:50:43;32.25;39.35
75088;HTU21D;63664;44.868;40.600;2023-07-13T09:53:15;32.45;39.15
75088;HTU21D;63664;44.868;40.600;2023-07-13T09:55:45;32.69;38.93
75088;HTU21D;63664;44.868;40.600;2023-07-13T09:58:20;32.74;38.93
75088;HTU21D;63664;44.868;40.600;2023-07-13T10:01:09;32.70;39.13
75088;HTU21D;63664;44.868;40.600;2023-07-13T10:03:36;32.77;38.67
75088;HTU21D;63664;44.868;40.600;2023-07-13T10:06:16;32.70;38.40
75088;HTU21D;63664;44.868;40.600;2023-07-13T10:08:47;32.68;38.11
75088;HTU21D;63664;44.868;40.600;2023-07-13T10:11:22;32.77;37.91
75088;HTU21D;63664;44.868;40.600;2023-07-13T10:13:55;32.87;37.69
75088;HTU21D;63664;44.868;40.600;2023-07-13T10:16:25;32.87;37.22
75088;HTU21D;63664;44.868;40.600;2023-07-13T10:22:14;32.90;37.37
75088;HTU21D;63664;44.868;40.600;2023-07-13T10:24:39;32.93;36.85
75088;HTU21D;63664;44.868;40.600;2023-07-13T10:27:20;32.66;36.45
75088;HTU21D;63664;44.868;40.600;2023-07-13T10:30:14;32.57;36.92
75088;HTU21D;63664;44.868;40.600;2023-07-13T10:32:38;32.77;36.66
75088;HTU21D;63664;44.868;40.600;2023-07-13T10:35:10;32.79;36.63
75088;HTU21D;63664;44.868;40.600;2023-07-13T10:38:02;32.98;36.69
75088;HTU21D;63664;44.868;40.600;2023-07-13T10:40:43;32.91;36.70
75088;HTU21D;63664;44.868;40.600;2023-07-13T10:43:22;32.87;36.90
75088;HTU21D;63664;44.868;40.600;2023-07-13T10:45:50;32.97;36.37
75088;HTU21D;63664;44.868;40.600;2023-07-13T10:48:21;32.91;36.05
75088;HTU21D;63664;44.868;40.600;2023-07-13T10:50:50;32.73;36.06
75088;HTU21D;63664;44.868;40.600;2023-07-13T10:53:22;32.61;36.18
75088;HTU21D;63664;44.868;40.600;2023-07-13T10:55:59;32.73;36.50
75088;HTU21D;63664;44.868;40.600;2023-07-13T10:58:34;32.84;36.06
75088;HTU21D;63664;44.868;40.600;2023-07-13T11:01:17;32.81;36.01
75088;HTU21D;63664;44.868;40.600;2023-07-13T11:03:59;32.77;35.65
75088;HTU21D;63664;44.868;40.600;2023-07-13T11:06:30;32.79;35.79
75088;HTU21D;63664;44.868;40.600;2023-07-13T11:11:44;33.02;35.44
75088;HTU21D;63664;44.868;40.600;2023-07-13T11:14:37;33.05;35.52
75088;HTU21D;63664;44.868;40.600;2023-07-13T11:25:36;33.28;35.77
75088;HTU21D;63664;44.868;40.600;2023-07-13T11:33:23;33.27;36.12
75088;HTU21D;63664;44.868;40.600;2023-07-13T11:38:22;33.18;35.73
75088;HTU21D;63664;44.868;40.600;2023-07-13T11:40:54;32.96;35.81
75088;HTU21D;63664;44.868;40.600;2023-07-13T11:43:21;32.83;35.98
75088;HTU21D;63664;44.868;40.600;2023-07-13T11:45:51;32.64;36.21
75088;HTU21D;63664;44.868;40.600;2023-07-13T11:48:26;32.57;36.21
75088;HTU21D;63664;44.868;40.600;2023-07-13T11:51:01;32.56;36.07
75088;HTU21D;63664;44.868;40.600;2023-07-13T11:53:38;32.47;35.68
75088;HTU21D;63664;44.868;40.600;2023-07-13T11:56:05;32.49;35.84
75088;HTU21D;63664;44.868;40.600;2023-07-13T11:58:32;32.43;35.51
75088;HTU21D;63664;44.868;40.600;2023-07-13T12:01:02;32.38;35.66
75088;HTU21D;63664;44.868;40.600;2023-07-13T12:03:33;32.45;35.54
75088;HTU21D;63664;44.868;40.600;2023-07-13T12:06:30;32.50;35.57
75088;HTU21D;63664;44.868;40.600;2023-07-13T12:09:00;32.66;35.30
75088;HTU21D;63664;44.868;40.600;2023-07-13T12:11:30;32.61;35.15
75088;HTU21D;63664;44.868;40.600;2023-07-13T12:13:56;32.57;35.01
75088;HTU21D;63664;44.868;40.600;2023-07-13T12:16:30;32.48;35.25
75088;HTU21D;63664;44.868;40.600;2023-07-13T12:19:02;32.47;35.19
75088;HTU21D;63664;44.868;40.600;2023-07-13T12:21:33;32.44;35.41
75088;HTU21D;63664;44.868;40.600;2023-07-13T12:24:23;32.38;35.56
75088;HTU21D;63664;44.868;40.600;2023-07-13T12:27:02;32.37;35.44
75088;HTU21D;63664;44.868;40.600;2023-07-13T12:29:36;32.45;35.77
75088;HTU21D;63664;44.868;40.600;2023-07-13T12:32:09;32.39;35.28
75088;HTU21D;63664;44.868;40.600;2023-07-13T12:34:54;32.28;35.64
75088;HTU21D;63664;44.868;40.600;2023-07-13T12:37:23;32.38;35.82
75088;HTU21D;63664;44.868;40.600;2023-07-13T12:39:53;32.58;35.68
75088;HTU21D;63664;44.868;40.600;2023-07-13T12:42:27;32.70;35.29
75088;HTU21D;63664;44.868;40.600;2023-07-13T12:44:58;32.63;35.44
75088;HTU21D;63664;44.868;40.600;2023-07-13T12:47:25;32.50;35.62
75088;HTU21D;63664;44.868;40.600;2023-07-13T12:49:58;32.47;35.28
75088;HTU21D;63664;44.868;40.600;2023-07-13T12:52:33;32.30;35.12
75088;HTU21D;63664;44.868;40.600;2023-07-13T12:55:22;32.24;35.37
75088;HTU21D;63664;44.868;40.600;2023-07-13T12:57:56;32.29;35.46
75088;HTU21D;63664;44.868;40.600;2023-07-13T13:00:29;32.37;35.85
75088;HTU21D;63664;44.868;40.600;2023-07-13T13:03:05;32.42;35.61
75088;HTU21D;63664;44.868;40.600;2023-07-13T13:05:33;32.54;35.50
75088;HTU21D;63664;44.868;40.600;2023-07-13T13:08:00;32.57;35.30
75088;HTU21D;63664;44.868;40.600;2023-07-13T13:10:26;32.41;35.15
75088;HTU21D;63664;44.868;40.600;2023-07-13T13:12:55;32.31;35.45
75088;HTU21D;63664;44.868;40.600;2023-07-13T13:15:21;32.26;35.27
75088;HTU21D;63664;44.868;40.600;2023-07-13T13:17:49;32.22;35.18
75088;HTU21D;63664;44.868;40.600;2023-07-13T13:20:20;32.01;35.21
75088;HTU21D;63664;44.868;40.600;2023-07-13T13:22:52;31.90;35.25
75088;HTU21D;63664;44.868;40.600;2023-07-13T13:25:18;32.02;35.37
75088;HTU21D;63664;44.868;40.600;2023-07-13T13:27:46;32.08;35.10
75088;HTU21D;63664;44.868;40.600;2023-07-13T13:30:14;31.88;35.21
75088;HTU21D;63664;44.868;40.600;2023-07-13T13:32:41;31.92;35.87
75088;HTU21D;63664;44.868;40.600;2023-07-13T13:35:20;31.80;35.48
75088;HTU21D;63664;44.868;40.600;2023-07-13T13:37:47;31.57;35.60
75088;HTU21D;63664;44.868;40.600;2023-07-13T13:40:21;31.48;35.64
75088;HTU21D;63664;44.868;40.600;2023-07-13T13:42:53;31.43;35.76
75088;HTU21D;63664;44.868;40.600;2023-07-13T13:45:24;31.41;35.93
75088;HTU21D;63664;44.868;40.600;2023-07-13T13:47:50;31.41;35.73
75088;HTU21D;63664;44.868;40.600;2023-07-13T13:50:20;31.34;35.89
75088;HTU21D;63664;44.868;40.600;2023-07-13T13:52:48;31.26;36.19
75088;HTU21D;63664;44.868;40.600;2023-07-13T13:55:20;31.20;36.27
75088;HTU21D;63664;44.868;40.600;2023-07-13T13:57:47;31.24;36.14
75088;HTU21D;63664;44.868;40.600;2023-07-13T14:00:16;31.22;36.01
75088;HTU21D;63664;44.868;40.600;2023-07-13T14:02:47;31.27;36.11
75088;HTU21D;63664;44.868;40.600;2023-07-13T14:05:21;31.25;36.18
75088;HTU21D;63664;44.868;40.600;2023-07-13T14:07:48;31.28;35.94
75088;HTU21D;63664;44.868;40.600;2023-07-13T14:10:18;31.16;35.96
75088;HTU21D;63664;44.868;40.600;2023-07-13T14:12:47;31.15;36.17
75088;HTU21D;63664;44.868;40.600;2023-07-13T14:15:28;31.06;36.11
75088;HTU21D;63664;44.868;40.600;2023-07-13T14:17:57;30.98;36.24
75088;HTU21D;63664;44.868;40.600;2023-07-13T14:20:24;30.87;36.45
75088;HTU21D;63664;44.868;40.600;2023-07-13T14:22:55;30.76;36.62
75088;HTU21D;63664;44.868;40.600;2023-07-13T14:25:29;30.74;36.82
75088;HTU21D;63664;44.868;40.600;2023-07-13T14:27:58;30.70;36.94
75088;HTU21D;63664;44.868;40.600;2023-07-13T14:30:25;30.65;37.22
75088;HTU21D;63664;44.868;40.600;2023-07-13T14:32:52;30.53;37.16
75088;HTU21D;63664;44.868;40.600;2023-07-13T14:35:20;30.37;37.60
75088;HTU21D;63664;44.868;40.600;2023-07-13T14:37:48;30.31;37.83
75088;HTU21D;63664;44.868;40.600;2023-07-13T14:40:23;30.26;38.01
75088;HTU21D;63664;44.868;40.600;2023-07-13T14:42:51;30.16;38.38
75088;HTU21D;63664;44.868;40.600;2023-07-13T14:45:19;30.09;38.47
75088;HTU21D;63664;44.868;40.600;2023-07-13T14:47:53;29.97;38.75
75088;HTU21D;63664;44.868;40.600;2023-07-13T14:50:26;29.90;39.13
75088;HTU21D;63664;44.868;40.600;2023-07-13T14:53:00;29.66;39.30
75088;HTU21D;63664;44.868;40.600;2023-07-13T14:55:26;29.47;39.75
75088;HTU21D;63664;44.868;40.600;2023-07-13T14:57:52;29.32;39.95
75088;HTU21D;63664;44.868;40.600;2023-07-13T15:00:20;29.21;40.36
75088;HTU21D;63664;44.868;40.600;2023-07-13T15:02:51;29.11;40.58
75088;HTU21D;63664;44.868;40.600;2023-07-13T15:05:26;28.99;40.72
75088;HTU21D;63664;44.868;40.600;2023-07-13T15:07:53;28.88;40.95
75088;HTU21D;63664;44.868;40.600;2023-07-13T15:10:26;28.77;41.24
75088;HTU21D;63664;44.868;40.600;2023-07-13T15:13:00;28.68;41.39
75088;HTU21D;63664;44.868;40.600;2023-07-13T15:15:29;28.53;41.63
75088;HTU21D;63664;44.868;40.600;2023-07-13T15:17:57;28.41;41.93
75088;HTU21D;63664;44.868;40.600;2023-07-13T15:20:31;28.33;42.07
75088;HTU21D;63664;44.868;40.600;2023-07-13T15:22:58;28.26;42.39
75088;HTU21D;63664;44.868;40.600;2023-07-13T15:25:27;28.17;42.55
75088;HTU21D;63664;44.868;40.600;2023-07-13T15:27:55;28.06;42.65
75088;HTU21D;63664;44.868;40.600;2023-07-13T15:30:30;28.01;42.90
75088;HTU21D;63664;44.868;40.600;2023-07-13T15:33:00;27.95;43.22
75088;HTU21D;63664;44.868;40.600;2023-07-13T15:35:28;27.86;43.36
75088;HTU21D;63664;44.868;40.600;2023-07-13T15:37:55;27.76;43.61
75088;HTU21D;63664;44.868;40.600;2023-07-13T15:40:23;27.69;43.86
75088;HTU21D;63664;44.868;40.600;2023-07-13T15:42:50;27.63;44.03
75088;HTU21D;63664;44.868;40.600;2023-07-13T15:45:23;27.57;44.16
75088;HTU21D;63664;44.868;40.600;2023-07-13T15:47:55;27.52;44.19
75088;HTU21D;63664;44.868;40.600;2023-07-13T15:50:25;27.46;44.34
75088;HTU21D;63664;44.868;40.600;2023-07-13T15:52:59;27.39;44.38
75088;HTU21D;63664;44.868;40.600;2023-07-13T15:55:25;27.30;44.55